createdAt,value
2022-08-04T00:02:28.695Z,101038.78
2022-08-04T00:05:05.375Z,101035.88
2022-08-04T00:07:44.151Z,101025.25
2022-08-04T00:10:18.201Z,101017.59
2022-08-04T00:13:08.538Z,101015.25
2022-08-04T00:15:42.581Z,101021.34
2022-08-04T00:18:10.609Z,101018.44
2022-08-04T00:20:42.487Z,101025.63
2022-08-04T00:23:11.374Z,101013.94
2022-08-04T00:25:46.641Z,101023.25
2022-08-04T00:28:14.924Z,101026.88
2022-08-04T00:30:44.311Z,101009.06
2022-08-04T00:33:17.591Z,101015.97
2022-08-04T00:35:47.080Z,101015.06
2022-08-04T00:38:23.556Z,101005.00
2022-08-04T00:41:10.713Z,101006.22
2022-08-04T00:43:59.558Z,101010.72
2022-08-04T00:47:20.292Z,100992.06
2022-08-04T00:50:12.316Z,101009.88
2022-08-04T00:53:03.682Z,100999.28
2022-08-04T00:55:53.705Z,100994.03
2022-08-04T00:58:50.517Z,100995.59
2022-08-04T01:01:39.869Z,101001.69
2022-08-04T01:04:19.731Z,101011.03
2022-08-04T01:07:13.383Z,100990.75
2022-08-04T01:09:57.217Z,100996.06
2022-08-04T01:12:36.125Z,101003.84
2022-08-04T01:15:23.344Z,100992.47
2022-08-04T01:18:05.988Z,100994.22
2022-08-04T01:20:43.042Z,100988.13
2022-08-04T01:23:40.370Z,100993.44
2022-08-04T01:26:43.869Z,100983.72
2022-08-04T01:29:29.347Z,100992.28
2022-08-04T01:32:49.028Z,100972.84
2022-08-04T01:39:24.240Z,100973.69
2022-08-04T01:41:58.120Z,100974.91
2022-08-04T01:44:48.915Z,100974.91
2022-08-04T01:47:27.319Z,100969.22
2022-08-04T01:50:02.320Z,100978.13
2022-08-04T01:52:55.395Z,100963.94
2022-08-04T01:55:54.127Z,100955.38
2022-08-04T01:58:22.962Z,100961.47
2022-08-04T02:00:58.090Z,100947.25
2022-08-04T02:04:21.405Z,100949.66
2022-08-04T02:06:29.782Z,100963.44
2022-08-04T02:09:11.671Z,100946.38
2022-08-04T02:12:16.244Z,100943.94
2022-08-04T02:15:07.343Z,100934.63
2022-08-04T02:17:46.913Z,100945.50
2022-08-04T02:20:38.325Z,100941.88
2022-08-04T02:23:16.381Z,100941.81
2022-08-04T02:25:49.633Z,100949.50
2022-08-04T02:28:43.460Z,100940.13
2022-08-04T02:31:29.093Z,100942.09
2022-08-04T02:34:08.326Z,100964.75
2022-08-04T02:36:43.791Z,100945.69
2022-08-04T02:39:47.756Z,100948.91
2022-08-04T02:42:23.181Z,100954.97
2022-08-04T02:44:57.367Z,100943.16
2022-08-04T02:48:28.791Z,100950.84
2022-08-04T02:50:35.265Z,100945.13
2022-08-04T02:53:10.792Z,100934.19
2022-08-04T02:55:40.046Z,100938.56
2022-08-04T02:58:33.281Z,100941.41
2022-08-04T03:01:01.981Z,100929.66
2022-08-04T03:03:38.213Z,100937.31
2022-08-04T03:06:28.879Z,100932.47
2022-08-04T03:09:29.368Z,100928.78
2022-08-04T03:12:41.879Z,100944.19
2022-08-04T03:15:46.054Z,100942.09
2022-08-04T03:18:51.680Z,100936.78
2022-08-04T03:21:54.945Z,100942.03
2022-08-04T03:25:03.533Z,100944.84
2022-08-04T03:27:58.717Z,100942.78
2022-08-04T03:30:49.340Z,100938.66
2022-08-04T03:34:04.685Z,100938.28
2022-08-04T03:37:00.021Z,100932.94
2022-08-04T03:40:00.423Z,100941.78
2022-08-04T03:43:02.991Z,100936.44
2022-08-04T03:46:04.596Z,100942.38
2022-08-04T03:48:53.837Z,100933.91
2022-08-04T03:52:01.370Z,100935.19
2022-08-04T04:05:59.864Z,100940.97
2022-08-04T04:08:45.565Z,100942.56
2022-08-04T04:11:55.289Z,100932.47
2022-08-04T04:14:43.698Z,100937.81
2022-08-04T04:17:50.071Z,100928.06
2022-08-04T04:20:43.725Z,100942.34
2022-08-04T04:23:24.653Z,100953.31
2022-08-04T04:26:22.208Z,100944.84
2022-08-04T04:29:15.663Z,100954.59
2022-08-04T04:31:54.147Z,100939.63
2022-08-04T04:34:42.806Z,100947.38
2022-08-04T04:37:26.802Z,100948.63
2022-08-04T04:40:05.097Z,100957.94
2022-08-04T04:42:44.185Z,100950.72
2022-08-04T04:45:27.183Z,100957.16
2022-08-04T04:48:09.254Z,100960.50
2022-08-04T04:50:49.699Z,100961.34
2022-08-04T04:53:24.465Z,100967.41
2022-08-04T04:55:56.076Z,100968.63
2022-08-04T04:58:25.611Z,100966.63
2022-08-04T05:01:30.554Z,100967.91
2022-08-04T05:04:26.704Z,100971.63
2022-08-04T05:07:22.120Z,100970.84
2022-08-04T05:10:03.366Z,100981.09
2022-08-04T05:14:32.336Z,100981.91
2022-08-04T05:15:45.104Z,100985.16
2022-08-04T05:18:16.333Z,100985.16
2022-08-04T05:20:48.891Z,100997.31
2022-08-04T05:23:19.636Z,100988.44
2022-08-04T05:25:59.281Z,100989.75
2022-08-04T05:28:31.599Z,100990.53
2022-08-04T05:31:04.013Z,100990.13
2022-08-04T05:33:35.283Z,101000.28
2022-08-04T05:36:20.723Z,101004.34
2022-08-04T05:39:00.008Z,101018.53
2022-08-04T05:41:32.386Z,101016.56
2022-08-04T05:44:15.240Z,101016.19
2022-08-04T05:46:45.533Z,101014.09
2022-08-04T05:49:22.405Z,101013.75
2022-08-04T05:51:49.860Z,101017.81
2022-08-04T05:54:18.425Z,101019.06
2022-08-04T05:56:45.885Z,101017.06
2022-08-04T05:59:14.004Z,101017.09
2022-08-04T06:01:55.764Z,101013.84
2022-08-04T06:04:28.148Z,101012.19
2022-08-04T06:06:55.379Z,101011.00
2022-08-04T06:09:22.462Z,101013.03
2022-08-04T06:12:00.789Z,101014.22
2022-08-04T06:14:35.790Z,101020.72
2022-08-04T06:18:32.413Z,101024.41
2022-08-04T06:20:03.983Z,101031.66
2022-08-04T06:22:44.877Z,101034.09
2022-08-04T06:25:15.715Z,101038.16
2022-08-04T06:27:44.106Z,101038.16
2022-08-04T06:30:14.612Z,101032.91
2022-08-04T06:32:50.013Z,101038.97
2022-08-04T06:35:19.694Z,101044.25
2022-08-04T06:37:48.180Z,101043.84
2022-08-04T06:40:31.569Z,101038.16
2022-08-04T06:43:01.712Z,101038.97
2022-08-04T06:45:29.696Z,101048.72
2022-08-04T06:48:00.149Z,101053.56
2022-08-04T06:51:26.164Z,101056.78
2022-08-04T06:53:15.539Z,101071.84
2022-08-04T06:55:45.036Z,101062.53
2022-08-04T06:58:13.060Z,101059.72
2022-08-04T07:00:44.700Z,101052.44
2022-08-04T07:03:14.089Z,101061.72
2022-08-04T07:05:42.439Z,101068.63
2022-08-04T07:08:11.349Z,101072.22
2022-08-04T07:10:39.301Z,101082.78
2022-08-04T07:13:07.839Z,101082.81
2022-08-04T07:15:36.806Z,101088.50
2022-08-04T07:18:05.171Z,101083.19
2022-08-04T07:20:36.615Z,101094.97
2022-08-04T07:23:05.692Z,101099.03
2022-08-04T07:25:59.866Z,101095.41
2022-08-04T07:28:22.162Z,101088.09
2022-08-04T07:30:49.822Z,101100.22
2022-08-04T07:33:18.306Z,101092.53
2022-08-04T07:36:08.961Z,101102.28
2022-08-04T07:38:37.447Z,101103.47
2022-08-04T07:41:35.861Z,101104.72
2022-08-04T07:44:04.379Z,101113.22
2022-08-04T07:46:31.769Z,101112.78
2022-08-04T07:49:00.006Z,101107.09
2022-08-04T07:51:28.812Z,101115.59
2022-08-04T07:53:56.803Z,101116.44
2022-08-04T07:56:24.706Z,101119.28
2022-08-04T07:58:51.474Z,101128.19
2022-08-04T08:01:19.284Z,101122.06
2022-08-04T08:03:47.281Z,101121.63
2022-08-04T08:06:17.333Z,101110.28
2022-08-04T08:09:13.852Z,101119.13
2022-08-04T08:12:37.748Z,101118.31
2022-08-04T08:14:30.414Z,101123.66
2022-08-04T08:16:58.975Z,101124.84
2022-08-04T08:19:25.789Z,101131.72
2022-08-04T08:21:59.204Z,101136.28
2022-08-04T08:24:29.728Z,101126.53
2022-08-04T08:26:57.331Z,101126.13
2022-08-04T08:29:26.132Z,101117.59
2022-08-04T08:31:57.030Z,101119.25
2022-08-04T08:34:27.390Z,101109.84
2022-08-04T08:37:02.951Z,101112.16
2022-08-04T08:39:38.875Z,101112.16
2022-08-04T08:42:40.205Z,101126.25
2022-08-04T08:45:54.394Z,101121.63
2022-08-04T08:48:55.100Z,101126.78
2022-08-04T08:51:47.402Z,101139.47
2022-08-04T08:54:54.151Z,101136.75
2022-08-04T08:57:59.497Z,101130.63
2022-08-04T09:00:33.624Z,101132.88
2022-08-04T09:03:30.411Z,101128.09
2022-08-04T09:06:31.593Z,101121.72
2022-08-04T09:09:31.118Z,101130.03
2022-08-04T09:12:07.099Z,101140.22
2022-08-04T09:14:42.342Z,101140.75
2022-08-04T09:17:19.401Z,101128.28
2022-08-04T09:20:01.434Z,101132.88
2022-08-04T09:22:39.713Z,101127.50
2022-08-04T09:25:11.225Z,101124.47
2022-08-04T09:27:50.363Z,101123.47
2022-08-04T09:30:23.485Z,101129.66
2022-08-04T09:32:57.203Z,101130.19
2022-08-04T09:35:37.879Z,101127.06
2022-08-04T09:38:14.638Z,101124.09
2022-08-04T09:40:53.159Z,101111.78
2022-08-04T09:43:59.403Z,101123.19
2022-08-04T09:46:30.631Z,101132.94
2022-08-04T09:49:07.566Z,101123.31
2022-08-04T09:51:59.223Z,101124.13
2022-08-04T09:54:33.497Z,101134.78
2022-08-04T09:57:08.112Z,101131.63
2022-08-04T09:59:43.543Z,101135.75
2022-08-04T10:02:15.858Z,101128.91
2022-08-04T10:04:44.271Z,101127.94
2022-08-04T10:07:26.100Z,101136.41
2022-08-04T10:10:12.379Z,101138.16
2022-08-04T10:13:00.289Z,101130.88
2022-08-04T10:15:33.050Z,101137.78
2022-08-04T10:18:12.112Z,101142.34
2022-08-04T10:20:55.555Z,101145.84
2022-08-04T10:23:56.001Z,101141.63
2022-08-04T10:26:32.288Z,101138.47
2022-08-04T10:29:04.798Z,101141.03
2022-08-04T10:31:35.770Z,101142.44
2022-08-04T10:34:12.010Z,101143.91
2022-08-04T10:36:45.370Z,101142.25
2022-08-04T10:39:43.579Z,101145.00
2022-08-04T10:42:11.929Z,101148.66
2022-08-04T10:44:57.164Z,101133.16
2022-08-04T10:47:32.245Z,101147.22
2022-08-04T10:50:03.334Z,101142.50
2022-08-04T10:52:34.564Z,101145.75
2022-08-04T10:55:08.413Z,101141.09
2022-08-04T10:57:39.578Z,101135.72
2022-08-04T11:00:09.378Z,101139.25
2022-08-04T11:02:46.962Z,101145.59
2022-08-04T11:05:27.366Z,101133.75
2022-08-04T11:08:00.750Z,101144.06
2022-08-04T11:10:33.165Z,101143.22
2022-08-04T11:13:04.941Z,101141.47
2022-08-04T11:15:38.261Z,101138.25
2022-08-04T11:18:16.685Z,101138.97
2022-08-04T11:20:53.176Z,101132.66
2022-08-04T11:23:26.712Z,101145.94
2022-08-04T11:25:59.191Z,101142.28
2022-08-04T11:28:38.961Z,101143.88
2022-08-04T11:31:11.307Z,101137.34
2022-08-04T11:33:44.619Z,101142.09
2022-08-04T11:36:22.455Z,101139.25
2022-08-04T11:38:56.560Z,101139.69
2022-08-04T11:41:37.134Z,101147.09
2022-08-04T11:44:10.443Z,101152.69
2022-08-04T11:46:43.052Z,101157.22
2022-08-04T11:49:21.015Z,101162.00
2022-08-04T11:51:51.942Z,101170.56
2022-08-04T11:54:20.143Z,101156.47
2022-08-04T11:56:46.997Z,101157.34
2022-08-04T11:59:14.788Z,101164.47
2022-08-04T12:01:53.143Z,101162.84
2022-08-04T12:04:35.229Z,101160.56
2022-08-04T12:07:40.605Z,101159.94
2022-08-04T12:10:14.197Z,101162.94
2022-08-04T12:12:46.205Z,101169.03
2022-08-04T12:15:20.557Z,101165.53
2022-08-04T12:17:54.566Z,101170.50
2022-08-04T12:20:38.324Z,101174.69
2022-08-04T12:23:17.569Z,101164.22
2022-08-04T12:25:48.907Z,101163.88
2022-08-04T12:28:22.603Z,101171.16
2022-08-04T12:31:01.068Z,101161.34
2022-08-04T12:34:02.987Z,101165.41
2022-08-04T12:36:30.565Z,101168.13
2022-08-04T12:39:07.517Z,101166.75
2022-08-04T12:41:42.513Z,101169.88
2022-08-04T12:44:36.219Z,101179.38
2022-08-04T12:47:26.859Z,101179.28
2022-08-04T12:49:56.338Z,101182.81
2022-08-04T12:52:51.742Z,101180.97
2022-08-04T12:55:18.953Z,101177.16
2022-08-04T12:57:47.999Z,101174.63
2022-08-04T13:00:29.356Z,101186.88
2022-08-04T13:03:04.545Z,101167.75
2022-08-04T13:05:33.240Z,101174.81
2022-08-04T13:08:02.846Z,101169.25
2022-08-04T13:10:37.122Z,101168.81
2022-08-04T13:13:04.453Z,101176.59
2022-08-04T13:15:33.573Z,101170.91
2022-08-04T13:18:15.577Z,101165.03
2022-08-04T13:20:44.805Z,101164.03
2022-08-04T13:23:15.066Z,101165.69
2022-08-04T13:26:43.810Z,101170.63
2022-08-04T13:28:43.145Z,101173.47
2022-08-04T13:31:14.215Z,101161.41
2022-08-04T13:33:45.740Z,101163.00
2022-08-04T13:36:13.161Z,101170.63
2022-08-04T13:38:46.518Z,101166.38
2022-08-04T13:41:17.780Z,101166.47
2022-08-04T13:44:19.291Z,101174.53
2022-08-04T13:46:39.398Z,101173.56
2022-08-04T13:52:00.847Z,101175.97
2022-08-04T13:54:36.119Z,101174.28
2022-08-04T13:57:15.903Z,101180.00
2022-08-04T13:59:47.973Z,101166.28
2022-08-04T14:02:29.180Z,101172.81
2022-08-04T14:05:01.687Z,101168.72
2022-08-04T14:07:30.706Z,101161.47
2022-08-04T14:10:03.588Z,101165.47
2022-08-04T14:12:38.645Z,101178.22
2022-08-04T14:15:54.772Z,101169.41
2022-08-04T14:18:24.399Z,101176.66
2022-08-04T14:21:04.772Z,101185.38
2022-08-04T14:23:47.063Z,101175.81
2022-08-04T14:26:19.515Z,101168.94
2022-08-04T14:29:09.706Z,101170.03
2022-08-04T14:31:35.677Z,101168.88
2022-08-04T14:34:17.904Z,101159.03
2022-08-04T14:37:13.313Z,101180.50
2022-08-04T14:39:40.983Z,101173.69
2022-08-04T14:42:08.435Z,101184.53
2022-08-04T14:44:53.522Z,101179.78
2022-08-04T14:47:38.597Z,101171.56
2022-08-04T14:50:06.524Z,101170.38
2022-08-04T14:52:37.015Z,101174.91
2022-08-04T14:55:17.521Z,101171.88
2022-08-04T14:58:37.443Z,101185.31
2022-08-04T15:00:36.387Z,101173.22
2022-08-04T15:03:06.873Z,101164.94
2022-08-04T15:05:59.834Z,101176.75
2022-08-04T15:08:20.621Z,101179.53
2022-08-04T15:10:49.982Z,101182.41
2022-08-04T15:13:16.788Z,101168.44
2022-08-04T15:16:00.951Z,101175.44
2022-08-04T15:18:33.577Z,101172.66
2022-08-04T15:21:02.398Z,101177.53
2022-08-04T15:23:38.590Z,101173.25
2022-08-04T15:26:10.697Z,101186.75
2022-08-04T15:28:40.559Z,101174.16
2022-08-04T15:32:07.513Z,101178.34
2022-08-04T15:33:58.101Z,101190.88
2022-08-04T15:36:34.879Z,101195.41
2022-08-04T15:39:11.889Z,101186.06
2022-08-04T15:41:55.262Z,101187.56
2022-08-04T15:44:54.151Z,101191.53
2022-08-04T15:47:27.404Z,101192.13
2022-08-04T15:50:06.815Z,101203.81
2022-08-04T15:53:12.676Z,101194.16
2022-08-04T15:55:42.043Z,101190.13
2022-08-04T15:58:11.051Z,101199.22
2022-08-04T16:01:15.852Z,101190.16
2022-08-04T16:04:00.441Z,101187.72
2022-08-04T16:06:49.150Z,101192.56
2022-08-04T16:09:45.250Z,101202.97
2022-08-04T16:12:56.030Z,101205.06
2022-08-04T16:15:40.719Z,101199.75
2022-08-04T16:18:12.272Z,101202.72
2022-08-04T16:20:46.807Z,101208.00
2022-08-04T16:24:06.096Z,101206.09
2022-08-04T16:26:55.064Z,101207.09
2022-08-04T16:29:42.008Z,101203.31
2022-08-04T16:32:14.023Z,101212.00
2022-08-04T16:34:50.348Z,101201.25
2022-08-04T16:37:29.722Z,101200.75
2022-08-04T16:40:38.506Z,101198.84
2022-08-04T16:43:09.255Z,101194.91
2022-08-04T16:45:46.951Z,101200.78
2022-08-04T16:48:15.044Z,101205.94
2022-08-04T16:50:56.824Z,101202.41
2022-08-04T16:54:02.741Z,101212.31
2022-08-04T16:56:18.716Z,101200.28
2022-08-04T16:58:52.938Z,101204.56
2022-08-04T17:01:33.173Z,101204.28
2022-08-04T17:04:05.408Z,101205.94
2022-08-04T17:06:35.371Z,101207.75
2022-08-04T17:09:07.207Z,101220.41
2022-08-04T17:11:34.055Z,101213.91
2022-08-04T17:14:05.485Z,101208.34
2022-08-04T17:16:34.551Z,101213.69
2022-08-04T17:19:02.014Z,101214.53
2022-08-04T17:21:31.489Z,101216.09
2022-08-04T17:24:13.092Z,101221.41
2022-08-04T17:26:53.820Z,101211.66
2022-08-04T17:29:21.776Z,101215.56
2022-08-04T17:31:48.729Z,101220.16
2022-08-04T17:34:21.570Z,101218.59
2022-08-04T17:36:48.677Z,101223.88
2022-08-04T17:39:19.982Z,101222.84
2022-08-04T17:41:55.914Z,101234.63
2022-08-04T17:44:36.640Z,101235.81
2022-08-04T17:47:12.752Z,101228.91
2022-08-04T17:49:52.540Z,101225.63
2022-08-04T17:52:37.410Z,101223.69
2022-08-04T17:55:16.376Z,101233.50
2022-08-04T17:57:52.373Z,101244.81
2022-08-04T18:00:20.110Z,101252.91
2022-08-04T18:02:53.490Z,101262.06
2022-08-04T18:05:50.257Z,101269.88
2022-08-04T18:08:46.277Z,101271.00
2022-08-04T18:11:02.221Z,101270.22
2022-08-04T18:13:31.395Z,101269.38
2022-08-04T18:16:22.961Z,101273.47
2022-08-04T18:19:08.590Z,101272.31
2022-08-04T18:21:46.932Z,101271.88
2022-08-04T18:24:22.148Z,101275.97
2022-08-04T18:27:03.429Z,101271.06
2022-08-04T18:29:39.230Z,101272.34
2022-08-04T18:32:06.980Z,101278.84
2022-08-04T18:34:36.561Z,101284.53
2022-08-04T18:38:03.542Z,101283.34
2022-08-04T18:40:29.909Z,101278.06
2022-08-04T18:42:57.932Z,101274.00
2022-08-04T18:45:33.899Z,101264.66
2022-08-04T18:48:01.928Z,101266.28
2022-08-04T18:50:59.381Z,101261.38
2022-08-04T18:53:16.618Z,101260.16
2022-08-04T18:55:57.186Z,101258.13
2022-08-04T18:58:27.151Z,101251.72
2022-08-04T19:00:56.239Z,101252.50
2022-08-04T19:03:30.609Z,101242.78
2022-08-04T19:05:58.414Z,101234.25
2022-08-04T19:08:34.438Z,101237.09
2022-08-04T19:11:28.737Z,101246.81
2022-08-04T19:13:54.483Z,101241.56
2022-08-04T19:16:26.920Z,101246.03
2022-08-04T19:18:53.708Z,101236.28
2022-08-04T19:22:01.343Z,101236.25
2022-08-04T19:24:32.746Z,101243.56
2022-08-04T19:26:56.572Z,101235.03
2022-08-04T19:29:23.628Z,101242.78
2022-08-04T19:31:51.788Z,101257.78
2022-08-04T19:34:33.130Z,101255.34
2022-08-04T19:37:01.805Z,101267.09
2022-08-04T19:39:31.430Z,101258.19
2022-08-04T19:42:05.099Z,101261.84
2022-08-04T19:44:33.109Z,101261.00
2022-08-04T19:47:02.260Z,101253.72
2022-08-04T19:50:04.824Z,101270.31
2022-08-04T19:55:09.730Z,101280.03
2022-08-04T19:57:38.037Z,101280.84
2022-08-04T20:00:10.187Z,101286.84
2022-08-04T20:02:38.944Z,101291.75
2022-08-04T20:05:09.039Z,101300.34
2022-08-04T20:07:36.294Z,101297.84
2022-08-04T20:10:04.599Z,101299.47
2022-08-04T20:12:31.732Z,101290.56
2022-08-04T20:14:59.611Z,101305.59
2022-08-04T20:18:08.232Z,101297.88
2022-08-04T20:20:14.836Z,101303.94
2022-08-04T20:22:50.639Z,101305.97
2022-08-04T20:25:36.770Z,101303.88
2022-08-04T20:28:05.259Z,101298.22
2022-08-04T20:30:35.726Z,101293.34
2022-08-04T20:36:05.097Z,101303.50
2022-08-04T20:41:19.123Z,101303.50
2022-08-04T20:43:49.789Z,101318.06
2022-08-04T20:49:05.077Z,101311.47
2022-08-04T20:51:39.942Z,101303.84
2022-08-04T20:54:16.613Z,101296.91
2022-08-04T20:56:50.755Z,101297.75
2022-08-04T20:59:18.396Z,101298.09
2022-08-04T21:01:49.078Z,101307.41
2022-08-04T21:04:32.173Z,101311.53
2022-08-04T21:07:01.636Z,101296.53
2022-08-04T21:09:38.244Z,101296.47
2022-08-04T21:12:10.450Z,101293.19
2022-08-04T21:14:37.280Z,101302.53
2022-08-04T21:17:07.357Z,101299.19
2022-08-04T21:19:36.850Z,101293.53
2022-08-04T21:22:10.251Z,101301.19
2022-08-04T21:24:37.676Z,101303.16
2022-08-04T21:27:09.704Z,101298.72
2022-08-04T21:29:37.181Z,101297.16
2022-08-04T21:32:07.673Z,101300.38
2022-08-04T21:34:39.038Z,101302.81
2022-08-04T21:37:10.404Z,101301.22
2022-08-04T21:39:58.782Z,101309.72
2022-08-04T21:42:28.322Z,101307.25
2022-08-04T21:44:57.589Z,101302.72
2022-08-04T21:47:24.438Z,101300.66
2022-08-04T21:49:55.997Z,101314.38
2022-08-04T21:52:25.554Z,101305.09
2022-08-04T21:54:54.202Z,101312.41
2022-08-04T21:57:24.830Z,101309.06
2022-08-04T21:59:52.130Z,101315.59
2022-08-04T22:02:19.152Z,101313.59
2022-08-04T22:04:48.206Z,101310.28
2022-08-04T22:07:16.740Z,101313.53
2022-08-04T22:10:00.149Z,101317.63
2022-08-04T22:12:27.491Z,101316.03
2022-08-04T22:14:57.590Z,101308.25
2022-08-04T22:17:27.072Z,101322.00
2022-08-04T22:20:02.090Z,101309.03
2022-08-04T22:22:30.020Z,101298.81
2022-08-04T22:25:01.298Z,101300.88
2022-08-04T22:27:47.557Z,101288.22
2022-08-04T22:30:17.066Z,101299.09
2022-08-04T22:32:44.920Z,101297.47
2022-08-04T22:35:36.121Z,101299.31
2022-08-04T22:38:06.150Z,101307.47
2022-08-04T22:40:41.001Z,101301.38
2022-08-04T22:43:32.239Z,101300.19
2022-08-04T22:45:54.730Z,101294.09
2022-08-04T22:48:22.806Z,101291.34
2022-08-04T22:50:49.536Z,101291.34
2022-08-04T22:53:18.096Z,101295.41
2022-08-04T22:56:06.930Z,101305.94
2022-08-04T22:58:33.520Z,101294.22
2022-08-04T23:01:00.867Z,101289.34
2022-08-04T23:03:37.302Z,101273.56
2022-08-04T23:06:06.435Z,101262.97
2022-08-04T23:08:37.347Z,101269.84
2022-08-04T23:11:09.414Z,101270.59
2022-08-04T23:13:36.221Z,101270.16
2022-08-04T23:16:05.206Z,101264.72
2022-08-04T23:18:36.599Z,101263.97
2022-08-04T23:21:07.728Z,101261.13
2022-08-04T23:23:34.898Z,101259.50
2022-08-04T23:26:08.243Z,101273.16
2022-08-04T23:28:39.370Z,101280.41
2022-08-04T23:31:06.637Z,101279.28
2022-08-04T23:33:51.181Z,101280.88
2022-08-04T23:36:18.491Z,101282.06
2022-08-04T23:38:45.617Z,101279.28
2022-08-04T23:41:17.225Z,101301.44
2022-08-04T23:43:54.914Z,101293.38
2022-08-04T23:46:22.553Z,101297.84
2022-08-04T23:48:49.632Z,101303.88
2022-08-04T23:51:16.747Z,101291.84
2022-08-04T23:54:03.106Z,101293.69
2022-08-04T23:56:31.807Z,101307.47
2022-08-04T23:59:03.456Z,101303.00
